• Join FlightAware (Why Join?)
  • Login
  • US Flag 
07:06AM EDT


 

Airport Tracker/Info


-or-


 

Live Flight TrackerFlight Track Log ✈ EGF4039 ✈ 03-May-2013 ✈ KALO - KORD

Flight Track Log - Related Links

Times and Time Zones

All times are in EDT time to prevent confusion due to time zone crossing. See the EGF4039 flight status page for this flight to view local times or setup timezone preferences in your user account.

Time Position Orientation Groundspeed Altitude Reporting Facility
EDT Latitude Longitude Course Direction KTS MPH feet Rate Location/Type
08:34PM 42.5750 -92.4311 97° East 155 178 23,000  Level Chicago Center
08:35PM 42.6097 -92.4997 305° West 313 360 4,400 -8,040 Descending Chicago Center
08:36PM 42.6406 -92.4419 54° Northeast 245 282 6,400 2,160 Climbing Chicago Center
08:37PM 42.6294 -92.3547 100° East 238 274 8,900 2,160 Climbing Chicago Center
08:38PM 42.6164 -92.2639 101° East 242 278 10,900 1,740 Climbing Chicago Center
08:39PM 42.6042 -92.1592 99° East 262 302 12,500 1,800 Climbing Chicago Center
08:40PM 42.4838 -91.6888 97° East  Level FlightAware Approximate
08:41PM 42.5858 -92.0250 100° East 289 333 14,700  Level Chicago Center
08:42PM 42.5711 -91.9097 100° East 303 349 16,400 1,560 Climbing Chicago Center
08:43PM 42.5553 -91.7933 100° East 317 365 18,000 1,320 Climbing Chicago Center
08:44PM 42.5381 -91.6714 101° East 333 383 19,200 1,140 Climbing Chicago Center
08:45PM 42.5206 -91.5436 100° East 346 398 20,400 1,200 Climbing Chicago Center
08:46PM 42.4978 -91.3817 101° East 367 422 21,700 1,080 Climbing Chicago Center
08:47PM 42.4778 -91.2436 101° East 379 436 22,700 600 Climbing Chicago Center
08:48PM 42.4575 -91.1022 101° East 386 444 23,000 120 Climbing Chicago Center
08:49PM 42.4367 -90.9600 101° East 388 447 23,000  Level Chicago Center
08:50PM 42.4158 -90.8150 101° East 395 455 23,000  Level Chicago Center
08:51PM 42.4069 -90.6378 94° East 400 460 23,000  Level Chicago Center
08:52PM 42.4233 -90.4892 81° East 406 467 23,000  Level Chicago Center
08:53PM 42.4392 -90.3406 82° East 404 465 23,000  Level Chicago Center
08:54PM 42.4519 -90.1958 83° East 393 452 23,000  Level Chicago Center
08:55PM 42.4678 -90.0514 82° East 392 451 23,000  Level Chicago Center
08:56PM 42.4833 -89.8881 83° East 393 452 23,000 -60 Level Chicago Center
08:57PM 42.4983 -89.7403 82° East 398 458 22,900 -1,260 Descending Chicago Center
08:58PM 42.5142 -89.5686 83° East 394 453 20,500 -2,400 Descending Chicago Center
08:59PM 42.5275 -89.4253 83° East 386 444 18,000 -2,280 Descending Chicago Center
09:00PM 42.5400 -89.2931 83° East 362 417 15,900 -1,980 Descending Chicago Center
09:01PM 42.5517 -89.1658 83° East 345 397 14,000 -1,260 Descending Chicago Center
09:02PM 42.5450 -89.0614 95° East 292 336 13,400 -960 Descending Chicago Center
09:03PM 42.5103 -88.9486 113° Southeast 278 320 12,100 -1,140 Descending Chicago Center
09:04PM 42.4822 -88.8556 112° Southeast 273 314 11,100 -1,020 Descending Chicago Center
09:05PM 42.4533 -88.7636 113° Southeast 268 308 10,100 -1,020 Descending Chicago Center
09:06PM 42.4264 -88.6725 112° Southeast 264 304 9,100 -600 Descending Chicago Center
09:07PM 42.4006 -88.5872 112° Southeast 253 291 8,900 -120 Descending Chicago Center
09:08PM 42.3883 -88.5078 102° East 243 280 8,900 -360 Level Chicago Center
09:09PM 42.3975 -88.4108 83° East 224 258 8,200 -840 Descending Chicago Center
09:10PM 42.3672 -88.3586 128° Southeast 188 216 7,200 -600 Descending Chicago Center
09:11PM 42.3272 -88.3442 165° South 173 199 7,000 -540 Descending Chicago Center
09:12PM 42.2653 -88.3522 185° South 184 212 6,200 -840 Descending Chicago Center
09:14PM 42.2158 -88.3556 183° South 181 208 5,300 -960 Descending Chicago Center
09:15PM 42.1669 -88.3636 187° South 179 206 4,300 -660 Descending Chicago Center
09:16PM 42.1269 -88.4128 222° Southwest 198 228 4,000 -180 Descending Chicago Center
09:17PM 42.0906 -88.4656 227° Southwest 194 223 4,000  Level Chicago Center
09:18PM 42.0406 -88.4742 187° South 181 208 4,000  Level Chicago Center
09:19PM 41.9939 -88.4608 168° South 164 189 4,000  Level Chicago Center
09:20PM 41.9847 -88.4031 102° East 162 186 4,000  Level Chicago Center
09:21PM 41.9822 -88.3456 93° East 158 182 4,000  Level Chicago Center
09:22PM 41.9844 -88.2878 87° East 156 180 4,000  Level Chicago Center
09:23PM 41.9831 -88.2314 92° East 155 178 4,000  Level Chicago Center
09:24PM 41.9833 -88.1736 90° East 154 177 4,000 -300 Level Chicago Center
09:25PM 41.9839 -88.1042 89° East 154 177 3,500 -540 Descending Chicago Center